Time;durP1;ratioP1;P1;durP2;ratioP2;P2;SDS_P1;SDS_P2;PMS_P1;PMS_P2;Temp;Humidity;BMP_temperature;BMP_pressure;BME280_temperature;BME280_humidity;BME280_pressure;Samples;Min_cycle;Max_cycle;Signal;HPM_P1;HPM_P2
2021/12/14 00:02:13;;;;;;;6.65;3.88;;;9.30;99.90;;;;;;5109069;28;20163;-69
2021/12/14 00:04:41;;;;;;;8.75;4.72;;;9.40;99.90;;;;;;5109900;28;20440;-69
2021/12/14 00:07:12;;;;;;;9.20;4.93;;;9.40;99.90;;;;;;5092328;28;20486;-69
2021/12/14 00:09:41;;;;;;;9.70;4.40;;;9.30;99.90;;;;;;5105172;28;20166;-69
2021/12/14 00:15:04;;;;;;;7.57;4.75;;;9.30;99.90;;;;;;5090305;28;20043;-69
2021/12/14 00:17:53;;;;;;;11.48;4.85;;;9.20;99.90;;;;;;5109129;28;20130;-68
2021/12/14 00:20:23;;;;;;;;;;;9.20;99.90;;;;;;5110646;28;20351;-69
2021/12/14 00:25:34;;;;;;;6.53;4.93;;;9.10;99.90;;;;;;5109272;28;20043;-69
2021/12/14 00:28:05;;;;;;;8.10;5.40;;;9.20;99.90;;;;;;5091886;28;20131;-69
2021/12/14 00:30:33;;;;;;;8.68;4.97;;;9.20;99.90;;;;;;5092535;28;20050;-69
2021/12/14 00:33:00;;;;;;;10.68;5.80;;;9.10;99.90;;;;;;5105388;28;20138;-69
2021/12/14 00:35:27;;;;;;;11.32;5.78;;;9.10;99.90;;;;;;5099692;28;20122;-69
2021/12/14 00:37:54;;;;;;;9.32;5.65;;;9.10;99.90;;;;;;5102928;28;20051;-70
2021/12/14 00:40:30;;;;;;;9.68;6.07;;;9.10;99.90;;;;;;5100471;28;20147;-70
2021/12/14 00:42:57;;;;;;;10.60;6.18;;;9.10;99.90;;;;;;5096069;28;20050;-69
2021/12/14 00:45:25;;;;;;;10.75;5.53;;;9.10;99.90;;;;;;5112030;28;20153;-68
2021/12/14 00:47:52;;;;;;;10.50;6.03;;;9.10;99.90;;;;;;5112195;28;20052;-69
2021/12/14 00:50:20;;;;;;;11.60;6.32;;;9.10;99.90;;;;;;5113878;28;20043;-69
2021/12/14 00:52:47;;;;;;;13.25;6.45;;;9.10;99.90;;;;;;5113607;28;20119;-68
2021/12/14 00:55:18;;;;;;;9.98;5.82;;;9.00;99.90;;;;;;5112454;28;20078;-69
2021/12/14 00:57:45;;;;;;;8.60;5.18;;;9.00;99.90;;;;;;5098765;28;20048;-68
2021/12/14 01:00:16;;;;;;;11.05;5.22;;;9.00;99.90;;;;;;5091510;28;20093;-69
2021/12/14 01:02:43;;;;;;;13.00;6.63;;;9.00;99.90;;;;;;5105175;28;20127;-68
2021/12/14 01:05:32;;;;;;;10.38;6.20;;;9.00;99.90;;;;;;5095928;28;20039;-68
2021/12/14 01:08:00;;;;;;;8.65;5.55;;;8.90;99.90;;;;;;5113322;28;20091;-71
2021/12/14 01:10:30;;;;;;;11.27;6.72;;;9.00;99.90;;;;;;5113145;28;20535;-69
2021/12/14 01:13:03;;;;;;;12.30;5.95;;;8.90;99.90;;;;;;5108329;28;20062;-69
2021/12/14 01:15:59;;;;;;;8.93;5.75;;;8.90;99.90;;;;;;5112971;28;20436;-69
2021/12/14 01:21:12;;;;;;;8.93;5.85;;;8.90;99.90;;;;;;5112948;28;20494;-69
2021/12/14 01:23:39;;;;;;;14.73;6.68;;;8.90;99.90;;;;;;5095862;28;20048;-69
2021/12/14 01:26:11;;;;;;;11.52;6.25;;;8.90;99.90;;;;;;5094552;28;20352;-69
2021/12/14 01:28:38;;;;;;;13.23;6.68;;;8.90;99.90;;;;;;5111743;28;20052;-69
2021/12/14 01:31:20;;;;;;;12.10;6.95;;;8.90;99.90;;;;;;5111072;28;20459;-69
2021/12/14 01:33:49;;;;;;;13.40;6.28;;;8.80;99.90;;;;;;5108773;28;20047;-69
2021/12/14 01:40:05;;;;;;;12.18;5.85;;;8.80;99.90;;;;;;5110852;28;20043;-69
2021/12/14 01:41:59;;;;;;;10.73;6.20;;;8.80;99.90;;;;;;5102982;28;20126;-69
2021/12/14 01:44:28;;;;;;;10.73;6.45;;;8.80;99.90;;;;;;5099414;28;20062;-69
2021/12/14 01:47:02;;;;;;;9.27;5.93;;;8.80;99.90;;;;;;5110740;28;20083;-68
2021/12/14 01:49:29;;;;;;;9.43;6.35;;;8.80;99.90;;;;;;5092849;28;20051;-68
2021/12/14 01:51:59;;;;;;;8.73;6.25;;;8.80;99.90;;;;;;5111984;28;20207;-68
2021/12/14 01:54:29;;;;;;;10.50;6.30;;;8.80;99.90;;;;;;5091247;28;20055;-69
2021/12/14 01:56:56;;;;;;;12.85;6.72;;;8.80;99.90;;;;;;5106076;28;20506;-69
2021/12/14 01:59:34;;;;;;;10.38;6.15;;;8.80;99.90;;;;;;5108638;28;20054;-69
2021/12/14 02:02:20;;;;;;;9.43;5.97;;;8.80;99.90;;;;;;5111298;28;20130;-69
2021/12/14 02:04:50;;;;;;;11.15;6.93;;;8.80;99.90;;;;;;5095749;28;20048;-69
2021/12/14 02:07:18;;;;;;;9.65;6.78;;;8.80;99.90;;;;;;5110785;28;20569;-69
2021/12/14 02:09:49;;;;;;;10.93;6.57;;;8.70;99.90;;;;;;5094355;28;20082;-69
2021/12/14 02:12:18;;;;;;;7.47;6.03;;;8.80;99.90;;;;;;5111255;28;20058;-68
2021/12/14 02:14:45;;;;;;;;;;;8.80;99.90;;;;;;5110885;28;20048;-68
2021/12/14 02:17:16;;;;;;;8.13;6.55;;;8.80;99.90;;;;;;5112033;27;19937;-68
2021/12/14 02:19:43;;;;;;;10.95;6.88;;;8.90;99.90;;;;;;5111946;28;20105;-69
2021/12/14 02:22:10;;;;;;;11.23;7.53;;;9.00;99.90;;;;;;5094015;28;20048;-69
2021/12/14 02:24:39;;;;;;;10.85;6.85;;;9.00;99.90;;;;;;5111859;27;20145;-69
2021/12/14 02:27:06;;;;;;;11.40;7.13;;;9.00;99.90;;;;;;5093465;28;20039;-70
2021/12/14 02:29:38;;;;;;;8.57;6.60;;;9.10;99.90;;;;;;5111526;28;20578;-70
2021/12/14 02:32:08;;;;;;;8.20;6.70;;;9.10;99.90;;;;;;5110574;28;20488;-70
2021/12/14 02:34:47;;;;;;;10.20;7.47;;;9.10;99.90;;;;;;5090109;28;20087;-70
2021/12/14 02:37:14;;;;;;;12.00;8.07;;;9.20;99.90;;;;;;5090037;28;20058;-70
2021/12/14 02:42:10;;;;;;;10.27;7.20;;;9.20;99.90;;;;;;5090051;28;20074;-70
2021/12/14 02:44:38;;;;;;;10.80;7.67;;;9.30;99.90;;;;;;5097032;28;20502;-70
2021/12/14 02:47:11;;;;;;;11.45;7.70;;;9.40;99.90;;;;;;5111381;28;20054;-70
2021/12/14 02:49:39;;;;;;;12.63;8.25;;;9.40;99.90;;;;;;5090985;28;20101;-70
2021/12/14 02:52:08;;;;;;;12.95;7.53;;;9.50;99.90;;;;;;5091389;28;20043;-68
2021/12/14 02:54:46;;;;;;;;;;;9.50;99.90;;;;;;5094367;28;20053;-70
2021/12/14 02:57:19;;;;;;;9.00;6.88;;;9.50;99.90;;;;;;5111635;28;20018;-70
2021/12/14 02:59:46;;;;;;;11.25;7.40;;;9.60;99.90;;;;;;5109302;28;20048;-70
2021/12/14 03:02:19;;;;;;;12.63;7.82;;;9.60;99.90;;;;;;5090843;28;20135;-70
2021/12/14 03:04:54;;;;;;;12.65;8.32;;;9.60;99.90;;;;;;5092015;28;20047;-70
2021/12/14 03:07:24;;;;;;;12.05;7.60;;;9.60;99.90;;;;;;5091876;28;20048;-71
2021/12/14 03:10:51;;;;;;;13.02;8.65;;;9.70;99.90;;;;;;5092526;28;20368;-72
2021/12/14 03:12:50;;;;;;;11.80;8.35;;;9.70;99.90;;;;;;5095268;28;20051;-70
2021/12/14 03:15:27;;;;;;;10.30;7.75;;;9.70;99.90;;;;;;5092937;28;20052;-67
2021/12/14 03:17:57;;;;;;;12.93;8.27;;;9.70;99.90;;;;;;5110389;28;20063;-70
2021/12/14 03:20:34;;;;;;;9.70;7.70;;;9.70;99.90;;;;;;5109777;28;20054;-70
2021/12/14 03:23:05;;;;;;;10.45;7.57;;;9.70;99.90;;;;;;5101960;28;20043;-70
2021/12/14 03:25:33;;;;;;;13.85;8.60;;;9.60;99.90;;;;;;5100624;28;20051;-70
2021/12/14 03:28:00;;;;;;;13.90;8.32;;;9.70;99.90;;;;;;5108733;28;20043;-70
2021/12/14 03:30:30;;;;;;;9.57;7.20;;;9.70;99.90;;;;;;5109086;28;20047;-70
2021/12/14 03:32:58;;;;;;;;;;;9.70;99.90;;;;;;5109916;28;20056;-70
2021/12/14 03:35:54;;;;;;;11.55;8.30;;;9.70;99.90;;;;;;5110378;27;20375;-55
2021/12/14 03:38:34;;;;;;;58.00;41.08;;;9.70;99.90;;;;;;5076190;28;20051;-69
2021/12/14 03:41:14;;;;;;;95.82;77.15;;;9.70;99.90;;;;;;5073142;28;20403;-70
2021/12/14 03:43:43;;;;;;;;;;;9.80;99.90;;;;;;5089517;28;20055;-69
2021/12/14 03:46:10;;;;;;;24.70;19.90;;;9.80;99.90;;;;;;5103194;28;20002;-67
2021/12/14 03:48:37;;;;;;;10.90;8.55;;;9.80;99.90;;;;;;5092095;28;20526;-70
2021/12/14 03:51:05;;;;;;;15.35;9.00;;;9.80;99.90;;;;;;5109277;28;20070;-69
2021/12/14 03:53:32;;;;;;;12.60;7.63;;;9.80;99.90;;;;;;5110050;28;20050;-70
2021/12/14 03:56:01;;;;;;;11.98;7.45;;;9.90;99.90;;;;;;5110062;28;20054;-69
2021/12/14 03:58:35;;;;;;;9.50;7.28;;;9.90;99.90;;;;;;5091833;28;20051;-69
2021/12/14 04:01:08;;;;;;;13.52;7.38;;;9.90;99.90;;;;;;5108055;28;20455;-69
2021/12/14 04:03:36;;;;;;;10.10;7.20;;;10.00;99.90;;;;;;5094497;28;20076;-69
2021/12/14 04:06:04;;;;;;;19.13;8.05;;;10.00;99.90;;;;;;5098625;28;20047;-69
2021/12/14 04:08:31;;;;;;;11.68;6.78;;;10.00;99.90;;;;;;5107530;28;20046;-70
2021/12/14 04:10:59;;;;;;;11.30;7.38;;;10.00;99.90;;;;;;5110038;28;20584;-69
2021/12/14 04:13:30;;;;;;;15.65;6.72;;;10.00;99.90;;;;;;5108658;28;20468;-69
2021/12/14 04:15:57;;;;;;;9.93;6.85;;;10.00;99.90;;;;;;5109925;28;20047;-69
2021/12/14 04:18:27;;;;;;;11.80;7.82;;;10.00;99.90;;;;;;5107597;28;20130;-70
2021/12/14 04:20:55;;;;;;;8.35;6.40;;;10.00;99.90;;;;;;5110173;28;20426;-69
2021/12/14 04:23:25;;;;;;;9.57;5.85;;;9.90;99.90;;;;;;5108713;28;20239;-69
2021/12/14 04:25:56;;;;;;;13.20;7.95;;;9.90;99.90;;;;;;5109754;28;20526;-70
2021/12/14 04:28:26;;;;;;;11.77;7.63;;;9.90;99.90;;;;;;5108175;28;20476;-69
2021/12/14 04:30:53;;;;;;;11.13;7.15;;;9.90;99.90;;;;;;5108638;28;20158;-69
2021/12/14 04:33:34;;;;;;;13.80;8.13;;;9.90;99.90;;;;;;5108519;28;20052;-69
2021/12/14 04:36:04;;;;;;;12.68;6.85;;;10.00;99.90;;;;;;5108627;28;20351;-69
2021/12/14 04:38:36;;;;;;;10.63;6.75;;;10.00;99.90;;;;;;5107987;28;20043;-70
2021/12/14 04:52:14;;;;;;;9.02;6.82;;;10.10;99.90;;;;;;5109918;28;20070;-69
2021/12/14 04:54:52;;;;;;;9.75;6.35;;;10.00;99.90;;;;;;5109485;28;20142;-69
2021/12/14 04:57:24;;;;;;;11.98;6.68;;;10.00;99.90;;;;;;5109736;28;20048;-69
2021/12/14 04:59:51;;;;;;;12.60;7.35;;;10.10;99.90;;;;;;5109565;28;20487;-69
2021/12/14 05:02:25;;;;;;;10.02;6.50;;;10.10;99.90;;;;;;5106749;28;20133;-69
2021/12/14 05:04:55;;;;;;;13.98;7.70;;;10.10;99.90;;;;;;5107715;28;20051;-69
2021/12/14 05:09:20;;;;;;;11.23;7.47;;;10.10;99.90;;;;;;5109277;28;20093;-69
2021/12/14 05:10:18;;;;;;;10.27;7.78;;;10.10;99.90;;;;;;5102417;28;20048;-69
2021/12/14 05:12:47;;;;;;;9.57;7.18;;;10.10;99.90;;;;;;5109179;28;20054;-69
2021/12/14 05:15:15;;;;;;;11.82;7.03;;;10.20;99.90;;;;;;5107501;28;20079;-69
2021/12/14 05:17:42;;;;;;;16.23;7.07;;;10.20;99.90;;;;;;5091189;28;20055;-68
2021/12/14 05:20:12;;;;;;;9.38;7.85;;;10.10;99.90;;;;;;5105486;28;20058;-69
2021/12/14 05:22:42;;;;;;;16.30;7.25;;;10.20;99.90;;;;;;5096671;28;20054;-68
2021/12/14 05:25:13;;;;;;;9.80;6.95;;;10.10;99.90;;;;;;5111064;28;20044;-68
2021/12/14 05:27:46;;;;;;;13.45;8.15;;;10.10;99.90;;;;;;5111833;28;20039;-68
2021/12/14 05:30:18;;;;;;;11.02;7.13;;;10.10;99.90;;;;;;5111390;28;20058;-68
2021/12/14 05:32:45;;;;;;;13.23;7.47;;;10.20;99.90;;;;;;5112017;28;20066;-68
2021/12/14 05:35:13;;;;;;;9.35;6.45;;;10.10;99.90;;;;;;5103335;28;20131;-68
2021/12/14 05:37:48;;;;;;;12.80;7.60;;;10.20;99.90;;;;;;5091129;28;20059;-68
2021/12/14 05:40:24;;;;;;;15.50;7.88;;;10.10;99.90;;;;;;5099200;28;20048;-69
2021/12/14 05:43:07;;;;;;;15.77;8.70;;;10.20;99.90;;;;;;5062960;28;20075;-68
2021/12/14 05:45:40;;;;;;;15.73;8.25;;;10.10;99.90;;;;;;5100520;28;20171;-68
2021/12/14 05:48:08;;;;;;;10.57;8.05;;;10.10;99.90;;;;;;5094300;28;20051;-68
2021/12/14 05:50:41;;;;;;;10.30;7.43;;;10.10;99.90;;;;;;5110521;28;20040;-68
2021/12/14 05:53:08;;;;;;;17.05;7.75;;;10.10;99.90;;;;;;5112831;28;20051;-68
2021/12/14 05:55:38;;;;;;;14.00;7.43;;;10.10;99.90;;;;;;5107064;28;20472;-68
2021/12/14 05:58:10;;;;;;;;;;;10.10;99.90;;;;;;5075811;28;20044;-68
2021/12/14 06:00:38;;;;;;;14.20;7.40;;;10.00;99.90;;;;;;5101814;28;19930;-68
2021/12/14 06:03:05;;;;;;;12.32;7.15;;;10.00;99.90;;;;;;5094985;28;20457;-68
2021/12/14 06:05:32;;;;;;;15.35;7.97;;;10.00;99.90;;;;;;5090110;28;20055;-69
2021/12/14 06:07:59;;;;;;;8.43;6.68;;;9.90;99.90;;;;;;5107422;28;20048;-68
2021/12/14 06:10:26;;;;;;;11.75;7.78;;;9.90;99.90;;;;;;5090582;28;20410;-68
2021/12/14 06:12:53;;;;;;;16.27;9.20;;;9.80;99.90;;;;;;5109470;28;20048;-69
2021/12/14 06:15:27;;;;;;;16.33;9.13;;;9.70;99.90;;;;;;5111769;28;20052;-68
2021/12/14 06:17:54;;;;;;;15.77;8.02;;;9.60;99.90;;;;;;5094629;28;20056;-69
2021/12/14 06:20:24;;;;;;;12.77;8.45;;;9.60;99.90;;;;;;5110600;28;20062;-68
2021/12/14 06:22:52;;;;;;;18.83;8.32;;;9.50;99.90;;;;;;5109912;28;20479;-68
2021/12/14 06:25:27;;;;;;;17.17;9.63;;;9.50;99.90;;;;;;5076329;28;20052;-69
2021/12/14 06:27:57;;;;;;;16.60;10.00;;;9.40;99.90;;;;;;5090623;28;20053;-68
2021/12/14 06:30:26;;;;;;;14.45;9.00;;;9.40;99.90;;;;;;5090655;28;20059;-68
2021/12/14 06:33:02;;;;;;;15.73;9.75;;;9.40;99.90;;;;;;5090022;28;20452;-68
2021/12/14 06:35:40;;;;;;;15.93;10.23;;;9.30;99.90;;;;;;5105850;28;20126;-69
2021/12/14 06:38:30;;;;;;;14.13;9.50;;;9.30;99.90;;;;;;5110993;28;20044;-68
2021/12/14 06:41:09;;;;;;;15.57;9.65;;;9.30;99.90;;;;;;5110648;28;20119;-69
2021/12/14 06:43:38;;;;;;;18.45;10.95;;;9.30;99.90;;;;;;5111572;28;20046;-68
2021/12/14 06:46:19;;;;;;;15.48;10.40;;;9.20;99.90;;;;;;5105383;28;20046;-68
2021/12/14 06:48:52;;;;;;;21.33;10.48;;;9.20;99.90;;;;;;5109756;28;20089;-67
2021/12/14 06:51:30;;;;;;;19.88;9.60;;;9.10;99.90;;;;;;5109428;28;20056;-65
2021/12/14 06:54:00;;;;;;;144.73;113.20;;;9.10;99.90;;;;;;5111057;28;20481;-66
2021/12/14 06:56:28;;;;;;;36.25;25.08;;;9.20;99.90;;;;;;5110437;28;20173;-68
2021/12/14 06:58:59;;;;;;;19.33;13.30;;;9.20;99.90;;;;;;5084744;28;20043;-67
2021/12/14 07:01:51;;;;;;;22.75;12.63;;;9.20;99.90;;;;;;5103655;28;20059;-65
2021/12/14 07:04:24;;;;;;;14.70;9.25;;;9.20;99.90;;;;;;5109405;28;20134;-67
2021/12/14 07:07:07;;;;;;;17.77;9.57;;;9.20;99.90;;;;;;5092761;28;20071;-67
2021/12/14 07:09:43;;;;;;;17.70;11.60;;;9.20;99.90;;;;;;5085379;28;20569;-68
2021/12/14 07:12:12;;;;;;;21.23;10.43;;;9.20;99.90;;;;;;5097210;28;20046;-68
2021/12/14 07:14:58;;;;;;;;;;;9.10;99.90;;;;;;5111356;28;20061;-68
2021/12/14 07:17:29;;;;;;;39.90;23.25;;;9.10;99.90;;;;;;5108399;28;19923;-76
2021/12/14 07:20:00;;;;;;;25.45;16.50;;;9.20;99.90;;;;;;5109344;28;20134;-67
2021/12/14 07:22:35;;;;;;;36.08;27.08;;;9.20;99.90;;;;;;5109283;28;20044;-71
2021/12/14 07:25:23;;;;;;;31.25;14.15;;;9.20;99.90;;;;;;5109296;28;20054;-67
2021/12/14 07:28:00;;;;;;;26.55;11.85;;;9.20;99.90;;;;;;5088595;28;20157;-67
2021/12/14 07:30:34;;;;;;;18.95;11.65;;;9.20;99.90;;;;;;5078012;28;20499;-69
2021/12/14 07:33:19;;;;;;;18.88;11.65;;;9.20;99.90;;;;;;5081642;28;20379;-69
2021/12/14 07:35:48;;;;;;;23.65;11.27;;;9.20;99.90;;;;;;5060110;28;20048;-70
2021/12/14 07:38:18;;;;;;;22.98;11.20;;;9.20;99.90;;;;;;5108585;28;20052;-69
2021/12/14 07:40:48;;;;;;;18.25;11.30;;;9.20;99.90;;;;;;5108707;28;20047;-69
2021/12/14 07:43:21;;;;;;;22.02;12.23;;;9.20;99.90;;;;;;5109099;28;20431;-68
2021/12/14 07:45:50;;;;;;;20.30;13.10;;;9.20;99.90;;;;;;5109039;28;20422;-69
2021/12/14 07:48:23;;;;;;;32.20;13.68;;;9.20;99.90;;;;;;5108241;28;20043;-68
2021/12/14 07:50:54;;;;;;;24.15;13.13;;;9.20;99.90;;;;;;5091898;28;20396;-68
2021/12/14 07:53:33;;;;;;;23.67;13.97;;;9.20;99.90;;;;;;5108234;28;20130;-68
2021/12/14 07:56:00;;;;;;;22.10;13.45;;;9.30;99.90;;;;;;5108437;28;20697;-68
2021/12/14 07:58:35;;;;;;;23.65;13.70;;;9.30;99.90;;;;;;5088912;28;20127;-69
2021/12/14 08:01:03;;;;;;;19.48;13.40;;;9.20;99.90;;;;;;5098087;28;20062;-69
2021/12/14 08:03:33;;;;;;;19.55;13.70;;;9.30;99.90;;;;;;5075810;28;20052;-71
2021/12/14 08:06:05;;;;;;;22.30;13.60;;;9.20;99.90;;;;;;5101989;28;20126;-70
2021/12/14 08:09:07;;;;;;;25.50;14.18;;;9.20;99.90;;;;;;5104364;28;20096;-69
2021/12/14 08:12:09;;;;;;;22.95;13.73;;;9.20;99.90;;;;;;5090813;28;20062;-68
2021/12/14 08:14:20;;;;;;;19.05;13.82;;;9.20;99.90;;;;;;5102434;28;20082;-68
2021/12/14 08:16:49;;;;;;;21.90;13.80;;;9.20;99.90;;;;;;5108705;28;20126;-68
2021/12/14 08:19:31;;;;;;;19.23;12.93;;;9.20;99.90;;;;;;5109096;28;20123;-67
2021/12/14 08:22:04;;;;;;;23.02;14.20;;;9.30;99.90;;;;;;5106023;28;20058;-67
2021/12/14 08:24:31;;;;;;;25.75;16.30;;;9.30;99.90;;;;;;5106541;28;20047;-67
2021/12/14 08:26:59;;;;;;;29.25;14.90;;;9.40;99.90;;;;;;5099522;28;20105;-65
2021/12/14 08:29:31;;;;;;;24.48;14.20;;;9.40;99.90;;;;;;5100144;28;20774;-67
2021/12/14 08:32:12;;;;;;;21.42;14.27;;;9.50;99.90;;;;;;5105051;28;20065;-68
2021/12/14 08:34:43;;;;;;;24.52;16.05;;;9.50;99.90;;;;;;5098199;28;20043;-65
2021/12/14 08:37:45;;;;;;;114.20;79.50;;;9.60;99.90;;;;;;5103550;28;20051;-65
2021/12/14 08:40:18;;;;;;;78.57;54.33;;;9.70;99.90;;;;;;5107773;28;20055;-67
2021/12/14 08:43:13;;;;;;;29.80;20.88;;;9.80;99.90;;;;;;5111310;28;20063;-70
2021/12/14 08:46:09;;;;;;;20.30;14.77;;;9.90;99.90;;;;;;5109437;28;20047;-66
2021/12/14 08:48:45;;;;;;;21.83;15.55;;;10.00;99.90;;;;;;5093011;28;20086;-67
2021/12/14 08:51:17;;;;;;;17.08;12.85;;;10.00;99.90;;;;;;5094624;28;20036;-68
2021/12/14 08:53:45;;;;;;;21.85;12.77;;;10.10;99.90;;;;;;5087286;28;20249;-66
2021/12/14 08:56:13;;;;;;;22.27;12.82;;;10.20;99.90;;;;;;5090094;28;20064;-69
2021/12/14 08:58:40;;;;;;;19.40;12.38;;;10.20;99.90;;;;;;5086220;28;20080;-66
2021/12/14 09:01:13;;;;;;;20.55;13.23;;;10.30;99.90;;;;;;5095192;28;20607;-67
2021/12/14 09:03:45;;;;;;;23.73;15.80;;;10.40;99.90;;;;;;5094007;28;20055;-66
2021/12/14 09:06:16;;;;;;;22.90;12.68;;;10.40;99.90;;;;;;5113135;28;20052;-67
2021/12/14 09:08:44;;;;;;;17.25;12.30;;;10.40;99.90;;;;;;5111374;28;20053;-68
2021/12/14 09:11:14;;;;;;;17.90;12.75;;;10.50;99.90;;;;;;5081663;28;20047;-69
2021/12/14 09:13:41;;;;;;;21.05;14.02;;;10.60;99.90;;;;;;5111614;28;20039;-68
2021/12/14 09:16:21;;;;;;;20.77;12.57;;;10.60;99.90;;;;;;5111464;28;20039;-67
2021/12/14 09:18:52;;;;;;;21.08;12.73;;;10.70;99.90;;;;;;5094407;28;20486;-70
2021/12/14 09:21:25;;;;;;;22.48;12.55;;;10.70;99.90;;;;;;5112215;28;20047;-69
2021/12/14 09:23:58;;;;;;;16.75;12.02;;;10.70;99.90;;;;;;5094757;28;20127;-71
2021/12/14 09:26:27;;;;;;;17.00;11.65;;;10.80;99.90;;;;;;5112892;28;20071;-70
2021/12/14 09:28:54;;;;;;;20.90;12.25;;;10.80;99.90;;;;;;5101393;28;20057;-72
2021/12/14 09:31:26;;;;;;;15.70;11.23;;;10.90;99.90;;;;;;5111139;28;20127;-74
2021/12/14 09:33:54;;;;;;;21.90;10.65;;;10.90;99.90;;;;;;5106524;28;20126;-72
2021/12/14 09:36:21;;;;;;;21.58;10.40;;;11.00;99.90;;;;;;5074564;28;20455;-71
2021/12/14 09:38:55;;;;;;;18.60;11.27;;;11.00;99.90;;;;;;5109167;28;20059;-69
2021/12/14 09:41:25;;;;;;;21.98;11.35;;;11.10;99.90;;;;;;5112964;28;20431;-73
2021/12/14 09:43:53;;;;;;;17.85;10.63;;;11.10;99.90;;;;;;5078302;28;20483;-67
2021/12/14 09:46:21;;;;;;;20.13;11.27;;;11.10;99.90;;;;;;5110999;28;20048;-68
2021/12/14 09:48:51;;;;;;;20.38;11.68;;;11.10;99.90;;;;;;5110617;28;20052;-68
2021/12/14 09:51:25;;;;;;;23.10;10.02;;;11.20;99.90;;;;;;5107118;28;20051;-65
2021/12/14 09:53:54;;;;;;;24.95;11.13;;;11.20;99.90;;;;;;5111480;28;20039;-67
2021/12/14 09:56:21;;;;;;;20.38;10.07;;;11.30;99.90;;;;;;5112328;28;20465;-66
2021/12/14 09:58:51;;;;;;;16.90;9.32;;;11.30;99.90;;;;;;5077361;28;20486;-67
2021/12/14 10:01:36;;;;;;;16.77;9.40;;;11.30;99.90;;;;;;5078523;28;20155;-66
2021/12/14 10:04:11;;;;;;;16.58;9.68;;;11.40;99.90;;;;;;5111652;28;20402;-69
2021/12/14 10:06:38;;;;;;;14.43;9.10;;;11.40;99.90;;;;;;5112260;28;20086;-68
2021/12/14 10:09:18;;;;;;;16.20;9.50;;;11.50;99.90;;;;;;5110566;28;20097;-68
2021/12/14 10:14:29;;;;;;;16.65;8.90;;;11.50;99.90;;;;;;5095800;28;19926;-67
2021/12/14 10:16:56;;;;;;;17.00;8.23;;;11.60;99.90;;;;;;5112101;28;20156;-70
2021/12/14 10:19:25;;;;;;;16.15;9.05;;;11.60;99.90;;;;;;5094133;28;20111;-69
2021/12/14 10:22:00;;;;;;;16.60;9.05;;;11.70;99.90;;;;;;5093674;28;20096;-68
2021/12/14 10:24:27;;;;;;;15.60;8.57;;;11.70;99.90;;;;;;5111295;28;20066;-69
2021/12/14 10:27:00;;;;;;;13.45;8.32;;;11.70;99.90;;;;;;5110923;28;20050;-71
2021/12/14 10:29:29;;;;;;;15.98;8.43;;;11.80;99.90;;;;;;5093156;28;20051;-69
2021/12/14 10:32:03;;;;;;;22.37;9.60;;;11.80;99.90;;;;;;5076612;28;20487;-70
2021/12/14 10:34:40;;;;;;;12.65;6.80;;;11.90;99.90;;;;;;5074094;28;20044;-70
2021/12/14 10:37:17;;;;;;;17.48;8.43;;;12.00;99.90;;;;;;5093999;28;20047;-67
2021/12/14 10:45:16;;;;;;;15.90;7.50;;;12.00;99.90;;;;;;5103853;28;20134;-68
2021/12/14 10:47:46;;;;;;;15.25;8.10;;;12.10;99.90;;;;;;5110254;28;20048;-68
2021/12/14 10:50:16;;;;;;;14.88;8.20;;;12.10;99.90;;;;;;5110253;28;20040;-67
2021/12/14 10:52:44;;;;;;;;;;;12.20;99.90;;;;;;5112042;28;20462;-64
2021/12/14 10:55:15;;;;;;;13.00;7.50;;;12.20;99.90;;;;;;5110069;28;19963;-67
2021/12/14 10:57:42;;;;;;;13.40;7.60;;;12.30;99.90;;;;;;5072962;28;20075;-68
2021/12/14 11:00:27;;;;;;;11.15;7.35;;;12.30;99.90;;;;;;5107375;28;20059;-65
2021/12/14 11:03:00;;;;;;;18.17;8.80;;;12.30;99.90;;;;;;5110520;28;20394;-69
2021/12/14 11:05:29;;;;;;;16.00;7.47;;;12.30;99.90;;;;;;5093696;28;20054;-70
2021/12/14 11:07:56;;;;;;;15.88;9.13;;;12.40;99.90;;;;;;5107494;28;20483;-69
2021/12/14 11:10:35;;;;;;;11.13;7.32;;;12.40;99.90;;;;;;5109406;28;20405;-70
2021/12/14 11:13:08;;;;;;;13.77;8.93;;;12.50;99.90;;;;;;5093867;28;20091;-71
2021/12/14 11:15:39;;;;;;;13.77;6.82;;;12.50;99.90;;;;;;5109722;28;20154;-74
2021/12/14 11:18:12;;;;;;;12.48;7.10;;;12.50;99.90;;;;;;5093438;28;20415;-71
2021/12/14 11:20:48;;;;;;;15.60;8.45;;;12.60;99.90;;;;;;5072441;28;20100;-74
2021/12/14 11:23:16;;;;;;;12.60;7.47;;;12.60;99.90;;;;;;5088657;28;20044;-74
2021/12/14 11:25:50;;;;;;;13.18;7.05;;;12.70;99.90;;;;;;5089418;28;20090;-68
2021/12/14 11:28:24;;;;;;;17.83;7.30;;;12.70;99.90;;;;;;5091526;28;20124;-73
2021/12/14 11:30:54;;;;;;;15.38;7.05;;;12.80;99.90;;;;;;5084110;28;20090;-71
2021/12/14 11:33:32;;;;;;;13.85;5.90;;;12.70;99.90;;;;;;5098805;28;20126;-69
2021/12/14 11:36:10;;;;;;;9.43;5.88;;;12.80;99.90;;;;;;5110936;28;20071;-68
2021/12/14 11:38:42;;;;;;;13.63;5.47;;;12.80;99.90;;;;;;5108631;28;20565;-68
2021/12/14 11:41:34;;;;;;;15.90;5.63;;;12.90;99.90;;;;;;5109272;28;20071;-66
2021/12/14 11:44:21;;;;;;;14.05;6.07;;;12.90;99.90;;;;;;5101102;28;20094;-69
2021/12/14 11:46:54;;;;;;;13.23;6.63;;;12.90;99.90;;;;;;5110640;28;20096;-69
2021/12/14 11:49:23;;;;;;;12.25;6.32;;;13.00;99.90;;;;;;5109352;28;20081;-70
2021/12/14 11:51:50;;;;;;;11.43;6.07;;;13.00;99.90;;;;;;5109762;28;20048;-67
2021/12/14 11:54:18;;;;;;;303.90;250.02;;;13.00;99.90;;;;;;5102284;28;20047;-69
2021/12/14 11:56:46;;;;;;;50.83;39.15;;;13.00;99.90;;;;;;5088593;28;20216;-65
2021/12/14 11:59:12;;;;;;;13.25;7.80;;;13.00;99.90;;;;;;5104988;28;20044;-65
2021/12/14 12:01:49;;;;;;;12.63;7.20;;;13.00;99.90;;;;;;5109464;28;20517;-66
2021/12/14 12:04:18;;;;;;;13.15;6.05;;;13.00;99.90;;;;;;5101556;28;20100;-72
2021/12/14 12:09:28;;;;;;;9.80;6.38;;;13.10;99.90;;;;;;5109869;28;20429;-67
2021/12/14 12:09:48;;;;;;;12.10;6.20;;;13.10;99.90;;;;;;5107039;28;20051;-71
2021/12/14 12:12:24;;;;;;;12.02;6.10;;;13.10;99.90;;;;;;5089473;28;20048;-67
2021/12/14 12:15:03;;;;;;;10.18;6.32;;;13.20;99.90;;;;;;5100014;28;20047;-66
2021/12/14 12:17:40;;;;;;;12.90;6.75;;;13.20;99.90;;;;;;5108233;28;20043;-67
2021/12/14 12:20:26;;;;;;;11.15;5.43;;;13.20;99.90;;;;;;5109309;28;20058;-68
2021/12/14 12:22:58;;;;;;;17.80;6.35;;;13.20;99.90;;;;;;5109664;28;20048;-66
2021/12/14 12:25:29;;;;;;;9.60;5.25;;;13.20;99.90;;;;;;5107960;28;20127;-64
2021/12/14 12:27:57;;;;;;;13.32;5.47;;;13.20;99.90;;;;;;5098956;28;20089;-66
2021/12/14 12:30:34;;;;;;;10.63;6.45;;;13.10;99.90;;;;;;5088784;28;20048;-66
2021/12/14 12:33:10;;;;;;;13.23;6.28;;;13.20;99.90;;;;;;5103214;28;20415;-65
2021/12/14 12:36:06;;;;;;;18.30;6.82;;;13.20;99.90;;;;;;5095886;28;20053;-65
2021/12/14 12:38:53;;;;;;;10.80;5.82;;;13.20;99.90;;;;;;5113396;28;20392;-65
2021/12/14 12:41:28;;;;;;;16.80;6.30;;;13.20;99.90;;;;;;5111251;28;20562;-66
2021/12/14 12:44:10;;;;;;;13.93;6.93;;;13.20;99.90;;;;;;5110956;28;20051;-65
2021/12/14 12:46:42;;;;;;;14.02;7.18;;;13.30;99.90;;;;;;5093929;28;20047;-67
2021/12/14 12:49:12;;;;;;;65.35;46.28;;;13.30;99.90;;;;;;5113033;28;20056;-65
2021/12/14 12:51:48;;;;;;;40.42;21.65;;;13.40;99.90;;;;;;5111828;27;20050;-66
2021/12/14 12:54:21;;;;;;;15.10;8.60;;;13.40;99.90;;;;;;5107798;28;20066;-67
2021/12/14 12:57:10;;;;;;;13.77;5.88;;;13.50;99.90;;;;;;5103302;28;20074;-66
2021/12/14 12:59:56;;;;;;;15.82;6.38;;;13.50;99.90;;;;;;5105909;28;20475;-66
2021/12/14 13:02:23;;;;;;;12.38;6.57;;;13.40;99.90;;;;;;5113371;28;20451;-67
2021/12/14 13:04:55;;;;;;;11.15;6.57;;;13.40;99.90;;;;;;5107334;28;20048;-67
2021/12/14 13:07:33;;;;;;;9.77;5.88;;;13.40;99.90;;;;;;5106599;28;20048;-68
2021/12/14 13:10:24;;;;;;;15.65;7.07;;;13.30;99.90;;;;;;5091800;28;20093;-67
2021/12/14 13:12:57;;;;;;;12.02;5.45;;;13.30;99.90;;;;;;5099522;28;20109;-66
2021/12/14 13:15:47;;;;;;;12.82;6.07;;;13.30;99.90;;;;;;5089689;28;20052;-66
2021/12/14 13:18:26;;;;;;;13.13;5.75;;;13.30;99.90;;;;;;5111346;28;20047;-67
2021/12/14 13:21:25;;;;;;;14.60;7.15;;;13.30;99.90;;;;;;5111651;28;20039;-66
2021/12/14 13:24:03;;;;;;;12.75;6.13;;;13.40;99.90;;;;;;5109289;28;20054;-66
2021/12/14 13:26:34;;;;;;;10.43;6.32;;;13.30;99.90;;;;;;5110941;28;20083;-66
2021/12/14 13:29:15;;;;;;;9.90;6.40;;;13.30;99.90;;;;;;5090848;28;20054;-67
2021/12/14 13:31:54;;;;;;;12.35;6.30;;;13.30;99.90;;;;;;5104464;28;20098;-65
2021/12/14 13:34:46;;;;;;;13.07;5.95;;;13.30;99.90;;;;;;5083793;28;20046;-67
2021/12/14 13:37:16;;;;;;;11.07;6.53;;;13.30;99.90;;;;;;5112924;28;20182;-66
2021/12/14 13:39:45;;;;;;;11.90;5.80;;;13.30;99.90;;;;;;5110309;28;20122;-67
2021/12/14 13:42:12;;;;;;;13.85;6.10;;;13.30;99.90;;;;;;5111181;28;20050;-67
2021/12/14 13:44:41;;;;;;;12.32;5.47;;;13.40;99.90;;;;;;5112058;28;20522;-67
2021/12/14 13:47:09;;;;;;;;;;;13.40;99.90;;;;;;5110875;28;20075;-67